createdAt,value
2019-01-18T00:00:45.679Z,0
2019-01-18T00:01:45.653Z,0
2019-01-18T00:02:45.641Z,0
2019-01-18T00:03:45.624Z,0
2019-01-18T00:04:45.604Z,0
2019-01-18T00:05:45.577Z,0
2019-01-18T00:06:45.561Z,0
2019-01-18T00:07:45.537Z,0
2019-01-18T00:08:45.522Z,0
2019-01-18T00:09:45.498Z,0
2019-01-18T00:10:45.480Z,0
2019-01-18T00:11:45.210Z,0
2019-01-18T00:12:45.459Z,0
2019-01-18T00:13:45.417Z,0
2019-01-18T00:14:45.396Z,0
2019-01-18T00:15:44.920Z,0
2019-01-18T00:16:45.361Z,0
2019-01-18T00:17:45.340Z,0
2019-01-18T00:18:45.329Z,0
2019-01-18T00:19:45.299Z,0
2019-01-18T00:20:45.279Z,0
2019-01-18T00:21:45.256Z,0
2019-01-18T00:22:45.026Z,0
2019-01-18T00:23:44.725Z,0
2019-01-18T00:24:45.202Z,0
2019-01-18T00:25:44.938Z,0
2019-01-18T00:26:44.911Z,0
2019-01-18T00:27:44.890Z,0
2019-01-18T00:28:45.120Z,0
2019-01-18T00:29:45.096Z,0
2019-01-18T00:30:44.830Z,0
2019-01-18T00:31:44.571Z,0
2019-01-18T00:32:45.035Z,0
2019-01-18T00:33:45.015Z,0
2019-01-18T00:34:44.996Z,0
2019-01-18T00:35:44.773Z,0
2019-01-18T00:36:44.958Z,0
2019-01-18T00:37:44.943Z,0
2019-01-18T00:38:44.921Z,0
2019-01-18T00:39:44.904Z,0
2019-01-18T00:40:44.887Z,0
2019-01-18T00:41:44.861Z,0
2019-01-18T00:42:44.843Z,0
2019-01-18T00:43:44.824Z,0
2019-01-18T00:44:44.555Z,0
2019-01-18T00:45:44.776Z,0
2019-01-18T00:46:44.756Z,0
2019-01-18T00:47:44.741Z,0
2019-01-18T00:48:44.268Z,0
2019-01-18T00:49:44.467Z,0
2019-01-18T00:50:44.683Z,0
2019-01-18T00:51:44.660Z,0
2019-01-18T00:52:57.125Z,0
2019-01-18T00:53:44.611Z,0
2019-01-18T00:54:44.596Z,0
2019-01-18T00:55:44.582Z,0
2019-01-18T00:56:44.311Z,0
2019-01-18T00:57:44.288Z,0
2019-01-18T00:58:44.519Z,0
2019-01-18T00:59:44.494Z,0
2019-01-18T01:00:44.482Z,0
2019-01-18T01:01:44.212Z,0
2019-01-18T01:02:44.440Z,0
2019-01-18T01:03:44.420Z,0
2019-01-18T01:04:44.399Z,0
2019-01-18T01:05:44.379Z,0
2019-01-18T01:06:44.358Z,0
2019-01-18T01:07:44.092Z,0
2019-01-18T01:08:44.323Z,0
2019-01-18T01:09:44.060Z,0
2019-01-18T01:10:44.280Z,0
2019-01-18T01:11:44.262Z,0
2019-01-18T01:12:44.239Z,0
2019-01-18T01:13:43.973Z,0
2019-01-18T01:14:43.950Z,0
2019-01-18T01:15:43.935Z,0
2019-01-18T01:16:44.162Z,0
2019-01-18T01:17:44.138Z,0
2019-01-18T01:18:44.115Z,0
2019-01-18T01:19:43.855Z,0
2019-01-18T01:20:44.114Z,0
2019-01-18T01:21:44.061Z,0
2019-01-18T01:22:44.040Z,0
2019-01-18T01:23:44.019Z,0
2019-01-18T01:24:44.001Z,0
2019-01-18T01:25:43.734Z,0
2019-01-18T01:26:43.974Z,0
2019-01-18T01:27:43.940Z,0
2019-01-18T01:28:43.922Z,0
2019-01-18T01:29:50.140Z,0
2019-01-18T01:30:43.638Z,0
2019-01-18T01:31:43.865Z,0
2019-01-18T01:32:43.844Z,0
2019-01-18T01:33:43.823Z,0
2019-01-18T01:34:43.552Z,0
2019-01-18T01:35:43.792Z,0
2019-01-18T01:36:43.524Z,0
2019-01-18T01:37:43.495Z,0
2019-01-18T01:38:43.729Z,0
2019-01-18T01:39:43.698Z,0
2019-01-18T01:40:43.679Z,0
2019-01-18T01:41:43.661Z,0
2019-01-18T01:42:43.642Z,0
2019-01-18T01:43:43.627Z,0
2019-01-18T01:44:43.611Z,0
2019-01-18T01:45:43.590Z,0
2019-01-18T01:46:43.567Z,0
2019-01-18T01:47:43.553Z,0
2019-01-18T01:48:43.523Z,0
2019-01-18T01:49:43.254Z,0
2019-01-18T01:50:42.999Z,0
2019-01-18T01:51:43.465Z,0
2019-01-18T01:52:43.456Z,0
2019-01-18T01:53:43.433Z,0
2019-01-18T01:54:43.411Z,0
2019-01-18T01:55:43.389Z,0
2019-01-18T01:56:43.373Z,0
2019-01-18T01:57:43.104Z,0
2019-01-18T01:58:43.331Z,0
2019-01-18T01:59:49.650Z,0
2019-01-18T02:00:43.290Z,0
2019-01-18T02:01:43.272Z,0
2019-01-18T02:02:43.254Z,0
2019-01-18T02:03:43.236Z,0
2019-01-18T02:04:42.967Z,0
2019-01-18T02:05:43.201Z,0
2019-01-18T02:06:43.175Z,0
2019-01-18T02:07:42.904Z,0
2019-01-18T02:08:43.141Z,0
2019-01-18T02:09:42.369Z,0
2019-01-18T02:10:43.091Z,0
2019-01-18T02:11:42.826Z,0
2019-01-18T02:12:43.059Z,0
2019-01-18T02:13:43.036Z,0
2019-01-18T02:14:43.018Z,0
2019-01-18T02:15:42.997Z,0
2019-01-18T02:16:42.979Z,0
2019-01-18T02:17:42.955Z,0
2019-01-18T02:18:42.690Z,0
2019-01-18T02:19:42.923Z,0
2019-01-18T02:20:42.899Z,0
2019-01-18T02:21:42.883Z,0
2019-01-18T02:22:42.859Z,0
2019-01-18T02:23:42.844Z,0
2019-01-18T02:24:42.822Z,0
2019-01-18T02:25:42.804Z,0
2019-01-18T02:26:42.786Z,0
2019-01-18T02:27:42.762Z,0
2019-01-18T02:28:42.754Z,0
2019-01-18T02:29:42.473Z,0
2019-01-18T02:30:42.465Z,0
2019-01-18T02:31:42.437Z,0
2019-01-18T02:32:42.670Z,0
2019-01-18T02:33:42.648Z,0
2019-01-18T02:34:42.633Z,0
2019-01-18T02:35:42.609Z,0
2019-01-18T02:36:42.333Z,0
2019-01-18T02:37:42.575Z,0
2019-01-18T02:38:42.547Z,0
2019-01-18T02:39:42.528Z,0
2019-01-18T02:40:42.271Z,0
2019-01-18T02:41:42.255Z,0
2019-01-18T02:42:42.467Z,0
2019-01-18T02:43:42.460Z,0
2019-01-18T02:44:42.179Z,0
2019-01-18T02:45:41.918Z,0
2019-01-18T02:46:42.404Z,0
2019-01-18T02:47:42.366Z,0
2019-01-18T02:48:42.348Z,0
2019-01-18T02:49:42.338Z,0
2019-01-18T02:50:42.066Z,0
2019-01-18T02:51:42.292Z,0
2019-01-18T02:52:42.035Z,0
2019-01-18T02:53:42.253Z,0
2019-01-18T02:54:42.243Z,0
2019-01-18T02:55:42.212Z,0
2019-01-18T02:56:42.193Z,0
2019-01-18T02:57:42.176Z,0
2019-01-18T02:58:42.161Z,0
2019-01-18T02:59:42.139Z,0
2019-01-18T03:00:41.622Z,0
2019-01-18T03:01:42.100Z,0
2019-01-18T03:02:42.075Z,0
2019-01-18T03:03:42.056Z,0
2019-01-18T03:04:42.039Z,0
2019-01-18T03:05:42.014Z,0
2019-01-18T03:06:41.996Z,0
2019-01-18T03:07:41.981Z,0
2019-01-18T03:08:41.962Z,0
2019-01-18T03:09:41.937Z,0
2019-01-18T03:10:41.930Z,0
2019-01-18T03:11:41.899Z,0
2019-01-18T03:12:41.887Z,0
2019-01-18T03:13:41.864Z,0
2019-01-18T03:14:41.849Z,0
2019-01-18T03:15:41.814Z,0
2019-01-18T03:16:41.561Z,0
2019-01-18T03:17:41.776Z,0
2019-01-18T03:18:41.762Z,0
2019-01-18T03:19:41.743Z,0
2019-01-18T03:20:41.773Z,0
2019-01-18T03:21:41.461Z,0
2019-01-18T03:22:41.708Z,0
2019-01-18T03:23:41.668Z,0
2019-01-18T03:24:41.403Z,0
2019-01-18T03:25:41.634Z,0
2019-01-18T03:26:41.609Z,0
2019-01-18T03:27:41.591Z,0
2019-01-18T03:28:41.393Z,0
2019-01-18T03:29:41.305Z,0
2019-01-18T03:30:41.578Z,0
2019-01-18T03:31:41.524Z,0
2019-01-18T03:32:41.509Z,0
2019-01-18T03:33:41.473Z,0
2019-01-18T03:34:41.458Z,0
2019-01-18T03:35:41.430Z,0
2019-01-18T03:36:41.410Z,0
2019-01-18T03:37:41.388Z,0
2019-01-18T03:38:41.372Z,0
2019-01-18T03:39:41.350Z,0
2019-01-18T03:40:40.832Z,0
2019-01-18T03:41:41.308Z,0
2019-01-18T03:42:41.286Z,0
2019-01-18T03:43:41.276Z,0
2019-01-18T03:44:41.246Z,0
2019-01-18T03:45:40.986Z,0
2019-01-18T03:46:41.217Z,0
2019-01-18T03:47:41.240Z,0
2019-01-18T03:48:41.185Z,0
2019-01-18T03:49:40.909Z,0
2019-01-18T03:50:40.891Z,0
2019-01-18T03:51:41.118Z,0
2019-01-18T03:52:41.098Z,0
2019-01-18T03:53:41.152Z,0
2019-01-18T03:54:41.054Z,0
2019-01-18T03:55:41.040Z,0
2019-01-18T03:56:41.017Z,0
2019-01-18T03:57:41.002Z,0
2019-01-18T03:58:40.984Z,0
2019-01-18T03:59:40.953Z,0
2019-01-18T04:00:40.940Z,0
2019-01-18T04:01:40.937Z,0
2019-01-18T04:02:40.908Z,0
2019-01-18T04:03:40.877Z,0
2019-01-18T04:04:40.881Z,0
2019-01-18T04:05:40.844Z,0
2019-01-18T04:06:40.822Z,0
2019-01-18T04:07:40.798Z,0
2019-01-18T04:08:40.781Z,0
2019-01-18T04:09:40.771Z,0
2019-01-18T04:10:40.737Z,0
2019-01-18T04:11:40.722Z,0
2019-01-18T04:12:40.457Z,0
2019-01-18T04:13:40.690Z,0
2019-01-18T04:14:40.659Z,0
2019-01-18T04:15:40.650Z,0
2019-01-18T04:16:40.763Z,0
2019-01-18T04:17:40.606Z,0
2019-01-18T04:18:40.583Z,0
2019-01-18T04:19:40.558Z,0
2019-01-18T04:20:40.297Z,0
2019-01-18T04:21:40.520Z,0
2019-01-18T04:22:40.533Z,0
2019-01-18T04:23:40.234Z,0
2019-01-18T04:24:40.224Z,0
2019-01-18T04:25:40.437Z,0
2019-01-18T04:26:40.428Z,0
2019-01-18T04:27:40.423Z,0
2019-01-18T04:28:40.386Z,0
2019-01-18T04:29:40.377Z,0
2019-01-18T04:30:40.494Z,0
2019-01-18T04:31:40.317Z,0
2019-01-18T04:32:40.300Z,0
2019-01-18T04:33:40.284Z,0
2019-01-18T04:34:40.256Z,0
2019-01-18T04:35:40.250Z,0
2019-01-18T04:36:39.975Z,0
2019-01-18T04:37:40.215Z,0
2019-01-18T04:38:40.198Z,0
2019-01-18T04:39:40.180Z,0
2019-01-18T04:40:40.155Z,0
2019-01-18T04:41:39.874Z,0
2019-01-18T04:42:40.121Z,0
2019-01-18T04:43:39.832Z,0
2019-01-18T04:44:39.813Z,0
2019-01-18T04:45:40.045Z,0
2019-01-18T04:46:40.014Z,0
2019-01-18T04:47:40.005Z,0
2019-01-18T04:48:39.742Z,0
2019-01-18T04:49:39.966Z,0
2019-01-18T04:50:39.936Z,0
2019-01-18T04:51:39.681Z,0
2019-01-18T04:52:39.899Z,0
2019-01-18T04:53:39.888Z,0
2019-01-18T04:54:39.868Z,0
2019-01-18T04:55:39.850Z,0
2019-01-18T04:56:39.828Z,0
2019-01-18T04:57:39.804Z,0
2019-01-18T04:58:39.784Z,0
2019-01-18T04:59:39.758Z,0
2019-01-18T05:00:45.802Z,0
2019-01-18T05:01:39.775Z,0
2019-01-18T05:02:39.719Z,0
2019-01-18T05:03:39.682Z,0
2019-01-18T05:04:39.672Z,0
2019-01-18T05:05:39.640Z,0
2019-01-18T05:06:39.633Z,0
2019-01-18T05:07:39.800Z,0
2019-01-18T05:08:39.583Z,0
2019-01-18T05:09:39.588Z,0
2019-01-18T05:10:39.538Z,0
2019-01-18T05:11:39.293Z,0
2019-01-18T05:12:39.501Z,0
2019-01-18T05:13:39.485Z,0
2019-01-18T05:14:39.456Z,0
2019-01-18T05:15:39.201Z,0
2019-01-18T05:16:39.421Z,0
2019-01-18T05:17:39.435Z,0
2019-01-18T05:18:39.129Z,0
2019-01-18T05:19:39.359Z,0
2019-01-18T05:20:39.090Z,0
2019-01-18T05:21:39.324Z,0
2019-01-18T05:22:39.311Z,0
2019-01-18T05:23:39.042Z,0
2019-01-18T05:24:39.259Z,0
2019-01-18T05:25:39.249Z,0
2019-01-18T05:26:39.217Z,0
2019-01-18T05:27:39.212Z,0
2019-01-18T05:28:39.186Z,0
2019-01-18T05:29:39.161Z,0
2019-01-18T05:30:38.892Z,0
2019-01-18T05:31:39.116Z,0
2019-01-18T05:32:38.859Z,0
2019-01-18T05:33:39.076Z,0
2019-01-18T05:34:39.060Z,0
2019-01-18T05:35:38.792Z,0
2019-01-18T05:36:39.021Z,0
2019-01-18T05:37:39.850Z,0
2019-01-18T05:38:38.978Z,0
2019-01-18T05:39:38.960Z,0
2019-01-18T05:40:38.944Z,0
2019-01-18T05:41:38.915Z,0
2019-01-18T05:42:38.914Z,0
2019-01-18T05:43:38.631Z,0
2019-01-18T05:44:38.860Z,0
2019-01-18T05:45:38.839Z,0
2019-01-18T05:46:38.864Z,0
2019-01-18T05:47:38.795Z,0
2019-01-18T05:48:38.786Z,0
2019-01-18T05:49:38.518Z,0
2019-01-18T05:50:38.754Z,0
2019-01-18T05:51:38.475Z,0
2019-01-18T05:52:39.686Z,0
2019-01-18T05:53:38.729Z,0
2019-01-18T05:54:38.663Z,0
2019-01-18T05:55:38.382Z,0
2019-01-18T05:56:38.624Z,0
2019-01-18T05:57:38.599Z,0
2019-01-18T05:58:38.580Z,0
2019-01-18T05:59:38.311Z,0
2019-01-18T06:00:38.297Z,0
2019-01-18T06:01:38.518Z,0
2019-01-18T06:02:38.253Z,0
2019-01-18T06:03:38.228Z,0
2019-01-18T06:04:38.454Z,0
2019-01-18T06:05:38.185Z,0
2019-01-18T06:06:38.163Z,0
2019-01-18T06:07:38.155Z,0
2019-01-18T06:08:38.376Z,0
2019-01-18T06:09:38.354Z,0
2019-01-18T06:10:38.333Z,0
2019-01-18T06:11:38.309Z,0
2019-01-18T06:12:38.300Z,0
2019-01-18T06:13:38.284Z,0
2019-01-18T06:14:38.249Z,0
2019-01-18T06:15:38.234Z,0
2019-01-18T06:16:37.968Z,0
2019-01-18T06:17:38.199Z,0
2019-01-18T06:18:38.174Z,0
2019-01-18T06:19:38.158Z,0
2019-01-18T06:20:37.880Z,0
2019-01-18T06:21:38.112Z,0
2019-01-18T06:22:38.126Z,0
2019-01-18T06:23:38.080Z,0
2019-01-18T06:24:38.062Z,0
2019-01-18T06:25:38.038Z,0
2019-01-18T06:26:37.767Z,0
2019-01-18T06:27:37.997Z,0
2019-01-18T06:28:37.977Z,0
2019-01-18T06:29:37.708Z,0
2019-01-18T06:30:37.682Z,0
2019-01-18T06:31:37.910Z,0
2019-01-18T06:32:37.639Z,0
2019-01-18T06:33:37.871Z,0
2019-01-18T06:34:37.358Z,0
2019-01-18T06:35:37.832Z,0
2019-01-18T06:36:37.845Z,0
2019-01-18T06:37:37.789Z,4
2019-01-18T06:38:38.556Z,4
2019-01-18T06:39:37.746Z,4
2019-01-18T06:40:37.229Z,0
2019-01-18T06:41:37.705Z,4
2019-01-18T06:42:37.689Z,4
2019-01-18T06:43:37.671Z,4
2019-01-18T06:44:37.653Z,4
2019-01-18T06:45:37.380Z,8
2019-01-18T06:46:37.611Z,12
2019-01-18T06:47:37.588Z,12
2019-01-18T06:48:37.565Z,16
2019-01-18T06:49:37.308Z,12
2019-01-18T06:50:37.527Z,20
2019-01-18T06:51:37.256Z,20
2019-01-18T06:52:37.486Z,16
2019-01-18T06:53:36.964Z,20
2019-01-18T06:54:37.459Z,20
2019-01-18T06:55:37.178Z,20
2019-01-18T06:56:37.401Z,20
2019-01-18T06:57:37.386Z,16
2019-01-18T06:58:37.360Z,16
2019-01-18T06:59:37.349Z,24
2019-01-18T07:00:37.084Z,24
2019-01-18T07:01:37.051Z,28
2019-01-18T07:02:36.789Z,40
2019-01-18T07:03:37.264Z,44
2019-01-18T07:04:43.849Z,56
2019-01-18T07:05:37.279Z,60
2019-01-18T07:06:36.954Z,68
2019-01-18T07:07:37.184Z,72
2019-01-18T07:08:37.163Z,76
2019-01-18T07:09:36.903Z,80
2019-01-18T07:10:37.118Z,92
2019-01-18T07:11:37.189Z,96
2019-01-18T07:12:37.079Z,100
2019-01-18T07:13:37.055Z,104
2019-01-18T07:14:37.041Z,104
2019-01-18T07:15:37.019Z,108
2019-01-18T07:16:37.012Z,120
2019-01-18T07:17:36.993Z,136
2019-01-18T07:18:36.966Z,140
2019-01-18T07:19:36.933Z,140
2019-01-18T07:20:36.922Z,140
2019-01-18T07:21:36.652Z,132
2019-01-18T07:22:36.626Z,132
2019-01-18T07:23:36.858Z,140
2019-01-18T07:24:36.835Z,168
2019-01-18T07:25:36.575Z,184
2019-01-18T07:26:36.801Z,188
2019-01-18T07:27:36.781Z,180
2019-01-18T07:28:36.759Z,184
2019-01-18T07:29:36.487Z,200
2019-01-18T07:30:36.486Z,192
2019-01-18T07:31:36.699Z,196
2019-01-18T07:32:36.427Z,212
2019-01-18T07:33:36.655Z,220
2019-01-18T07:34:36.632Z,244
2019-01-18T07:35:36.376Z,292
2019-01-18T07:36:36.600Z,284
2019-01-18T07:37:36.577Z,300
2019-01-18T07:38:36.565Z,300
2019-01-18T07:39:36.536Z,320
2019-01-18T07:40:36.518Z,320
2019-01-18T07:41:36.496Z,320
2019-01-18T07:42:36.475Z,312
2019-01-18T07:43:36.457Z,328
2019-01-18T07:44:36.434Z,352
2019-01-18T07:45:36.421Z,356
2019-01-18T07:46:36.389Z,368
2019-01-18T07:47:36.373Z,372
2019-01-18T07:48:36.358Z,364
2019-01-18T07:49:36.329Z,368
2019-01-18T07:50:36.325Z,392
2019-01-18T07:51:36.291Z,428
2019-01-18T07:52:36.277Z,476
2019-01-18T07:53:36.257Z,528
2019-01-18T07:54:36.234Z,564
2019-01-18T07:55:35.967Z,592
2019-01-18T07:56:36.192Z,628
2019-01-18T07:57:36.172Z,644
2019-01-18T07:58:36.148Z,596
2019-01-18T07:59:36.129Z,576
2019-01-18T08:00:36.109Z,632
2019-01-18T08:01:36.098Z,660
2019-01-18T08:02:36.071Z,696
2019-01-18T08:03:36.058Z,740
2019-01-18T08:04:36.031Z,764
2019-01-18T08:05:36.018Z,804
2019-01-18T08:06:35.987Z,812
2019-01-18T08:07:35.967Z,848
2019-01-18T08:08:35.706Z,880
2019-01-18T08:09:35.929Z,936
2019-01-18T08:10:35.915Z,940
2019-01-18T08:11:35.891Z,968
2019-01-18T08:12:35.871Z,912
2019-01-18T08:13:35.847Z,908
2019-01-18T08:14:35.828Z,948
2019-01-18T08:15:35.810Z,908
2019-01-18T08:16:35.789Z,924
2019-01-18T08:17:35.519Z,944
2019-01-18T08:18:35.503Z,964
2019-01-18T08:19:35.725Z,1012
2019-01-18T08:20:35.704Z,1116
2019-01-18T08:21:35.688Z,1148
2019-01-18T08:22:35.669Z,1180
2019-01-18T08:23:35.649Z,1220
2019-01-18T08:24:35.631Z,1180
2019-01-18T08:25:35.114Z,1164
2019-01-18T08:26:35.592Z,1072
2019-01-18T08:27:35.070Z,1176
2019-01-18T08:28:35.546Z,1256
2019-01-18T08:29:35.532Z,1340
2019-01-18T08:30:35.520Z,1328
2019-01-18T08:31:36.018Z,1256
2019-01-18T08:32:35.467Z,1184
2019-01-18T08:33:35.444Z,1272
2019-01-18T08:34:35.459Z,1296
2019-01-18T08:35:35.408Z,1300
2019-01-18T08:36:35.402Z,1344
2019-01-18T08:37:35.369Z,1480
2019-01-18T08:38:35.347Z,1564
2019-01-18T08:39:35.335Z,1456
2019-01-18T08:40:35.309Z,1424
2019-01-18T08:41:35.296Z,1324
2019-01-18T08:42:35.023Z,1336
2019-01-18T08:43:35.242Z,1300
2019-01-18T08:44:35.241Z,1208
2019-01-18T08:45:35.221Z,1136
2019-01-18T08:46:35.189Z,1112
2019-01-18T08:47:35.174Z,1096
2019-01-18T08:48:35.154Z,1028
2019-01-18T08:49:35.129Z,1020
2019-01-18T08:50:35.106Z,1080
2019-01-18T08:51:35.088Z,1136
2019-01-18T08:52:35.070Z,1224
2019-01-18T08:53:35.049Z,1332
2019-01-18T08:54:35.031Z,1468
2019-01-18T08:55:35.008Z,1596
2019-01-18T08:56:34.996Z,1560
2019-01-18T08:57:34.968Z,1436
2019-01-18T08:58:34.716Z,1408
2019-01-18T08:59:34.681Z,1436
2019-01-18T09:00:34.908Z,1548
2019-01-18T09:01:40.652Z,1716
2019-01-18T09:02:34.865Z,1832
2019-01-18T09:03:34.840Z,1836
2019-01-18T09:04:34.578Z,1764
2019-01-18T09:05:34.807Z,1760
2019-01-18T09:06:34.794Z,1780
2019-01-18T09:07:34.766Z,1816
2019-01-18T09:08:34.496Z,1792
2019-01-18T09:09:34.732Z,1800
2019-01-18T09:10:34.209Z,1820
2019-01-18T09:11:34.203Z,1856
2019-01-18T09:12:34.667Z,1828
2019-01-18T09:13:34.648Z,1820
2019-01-18T09:14:34.386Z,1832
2019-01-18T09:15:34.355Z,1928
2019-01-18T09:16:34.596Z,1916
2019-01-18T09:17:34.571Z,2072
2019-01-18T09:18:35.145Z,2220
2019-01-18T09:19:34.527Z,2284
2019-01-18T09:20:34.266Z,2308
2019-01-18T09:21:34.489Z,2356
2019-01-18T09:22:34.469Z,2372
2019-01-18T09:23:34.450Z,2392
2019-01-18T09:24:34.432Z,2452
2019-01-18T09:25:34.458Z,2508
2019-01-18T09:26:34.397Z,2588
2019-01-18T09:27:34.370Z,2660
2019-01-18T09:28:34.348Z,2772
2019-01-18T09:29:34.330Z,2884
2019-01-18T09:30:34.312Z,2880
2019-01-18T09:31:34.289Z,2808
2019-01-18T09:32:34.267Z,2744
2019-01-18T09:33:34.260Z,2776
2019-01-18T09:34:34.243Z,2800
2019-01-18T09:35:34.216Z,2728
2019-01-18T09:36:33.943Z,2656
2019-01-18T09:37:34.176Z,2596
2019-01-18T09:38:34.158Z,2604
2019-01-18T09:39:34.151Z,2652
2019-01-18T09:40:34.117Z,2672
2019-01-18T09:41:34.099Z,2624
2019-01-18T09:42:34.088Z,2616
2019-01-18T09:43:34.057Z,2632
2019-01-18T09:44:34.038Z,2656
2019-01-18T09:45:34.221Z,2660
2019-01-18T09:46:34.037Z,2680
2019-01-18T09:47:33.977Z,2636
2019-01-18T09:48:33.971Z,2556
2019-01-18T09:49:33.933Z,2532
2019-01-18T09:50:33.939Z,2644
2019-01-18T09:51:33.901Z,2780
2019-01-18T09:52:33.881Z,2944
2019-01-18T09:53:33.859Z,3088
2019-01-18T09:54:33.850Z,3172
2019-01-18T09:55:34.068Z,3168
2019-01-18T09:56:33.808Z,3096
2019-01-18T09:57:33.543Z,2948
2019-01-18T09:58:33.769Z,2852
2019-01-18T09:59:33.754Z,2820
2019-01-18T10:00:33.731Z,2888
2019-01-18T10:01:33.467Z,3024
2019-01-18T10:02:33.698Z,3196
2019-01-18T10:03:33.671Z,3320
2019-01-18T10:04:33.657Z,3256
2019-01-18T10:05:33.644Z,3144
2019-01-18T10:06:33.386Z,3076
2019-01-18T10:07:33.602Z,3048
2019-01-18T10:08:33.337Z,3056
2019-01-18T10:09:33.564Z,3020
2019-01-18T10:10:33.541Z,2992
2019-01-18T10:11:33.529Z,2844
2019-01-18T10:12:33.502Z,2528
2019-01-18T10:13:34.422Z,2172
2019-01-18T10:14:33.222Z,2072
2019-01-18T10:15:33.447Z,2284
2019-01-18T10:16:33.424Z,2564
2019-01-18T10:17:33.404Z,2944
2019-01-18T10:18:33.394Z,3364
2019-01-18T10:19:33.375Z,3700
2019-01-18T10:20:33.347Z,3640
2019-01-18T10:21:33.082Z,3452
2019-01-18T10:22:33.314Z,3396
2019-01-18T10:23:33.039Z,3532
2019-01-18T10:24:33.280Z,3628
2019-01-18T10:25:33.257Z,3576
2019-01-18T10:26:33.236Z,3540
2019-01-18T10:27:33.214Z,3480
2019-01-18T10:28:33.206Z,3356
2019-01-18T10:29:35.425Z,3272
2019-01-18T10:30:32.660Z,3232
2019-01-18T10:31:32.900Z,3388
2019-01-18T10:32:32.876Z,3568
2019-01-18T10:33:33.104Z,3720
2019-01-18T10:34:33.085Z,3868
2019-01-18T10:35:33.063Z,4140
2019-01-18T10:36:33.047Z,4056
2019-01-18T10:37:33.074Z,4096
2019-01-18T10:38:33.061Z,4128
2019-01-18T10:39:33.040Z,3964
2019-01-18T10:40:33.065Z,3820
2019-01-18T10:41:33.041Z,3616
2019-01-18T10:42:33.024Z,3404
2019-01-18T10:43:32.812Z,3216
2019-01-18T10:44:33.047Z,3040
2019-01-18T10:45:33.026Z,2952
2019-01-18T10:46:33.065Z,2956
2019-01-18T10:47:32.791Z,2960
2019-01-18T10:48:32.776Z,3084
2019-01-18T10:49:32.819Z,3116
2019-01-18T10:50:33.046Z,3224
2019-01-18T10:51:33.026Z,3384
2019-01-18T10:52:33.065Z,3724
2019-01-18T10:53:33.059Z,3980
2019-01-18T10:54:33.041Z,4332
2019-01-18T10:55:32.814Z,4620
2019-01-18T10:56:33.048Z,4944
2019-01-18T10:57:33.040Z,4752
2019-01-18T10:58:33.072Z,5072
2019-01-18T10:59:33.056Z,4912
2019-01-18T11:00:33.030Z,4656
2019-01-18T11:01:34.005Z,4600
2019-01-18T11:02:33.053Z,4492
2019-01-18T11:03:33.038Z,4440
2019-01-18T11:04:33.084Z,4428
2019-01-18T11:05:33.052Z,4288
2019-01-18T11:06:33.032Z,4076
2019-01-18T11:07:33.073Z,3604
2019-01-18T11:08:32.806Z,3500
2019-01-18T11:09:33.041Z,3152
2019-01-18T11:10:32.832Z,2992
2019-01-18T11:11:33.054Z,2192
2019-01-18T11:12:33.037Z,2076
2019-01-18T11:13:33.080Z,2060
2019-01-18T11:14:33.058Z,2044
2019-01-18T11:15:35.876Z,2100
2019-01-18T11:16:33.078Z,2068
2019-01-18T11:17:32.860Z,2020
2019-01-18T11:18:32.792Z,2060
2019-01-18T11:19:33.080Z,2132
2019-01-18T11:20:33.115Z,2140
2019-01-18T11:21:33.047Z,2196
2019-01-18T11:22:32.591Z,2184
2019-01-18T11:23:32.810Z,2104
2019-01-18T11:24:33.051Z,2064
2019-01-18T11:25:38.946Z,2120
2019-01-18T11:26:33.064Z,2276
2019-01-18T11:27:33.049Z,2532
2019-01-18T11:28:33.080Z,2776
2019-01-18T11:29:32.852Z,3028
2019-01-18T11:30:33.043Z,3748
2019-01-18T11:31:33.931Z,2708
2019-01-18T11:32:33.064Z,3092
2019-01-18T11:33:32.806Z,2972
2019-01-18T11:34:33.103Z,3388
2019-01-18T11:35:33.070Z,3208
2019-01-18T11:36:32.806Z,3256
2019-01-18T11:37:33.034Z,3380
2019-01-18T11:38:33.018Z,3272
2019-01-18T11:39:32.998Z,2920
2019-01-18T11:40:32.740Z,3492
2019-01-18T11:41:32.968Z,2492
2019-01-18T11:42:32.941Z,2332
2019-01-18T11:43:32.921Z,2116
2019-01-18T11:44:32.409Z,1992
2019-01-18T11:45:32.637Z,1936
2019-01-18T11:46:32.648Z,1956
2019-01-18T11:47:32.949Z,2016
2019-01-18T11:48:32.829Z,2144
2019-01-18T11:49:32.810Z,2304
2019-01-18T11:50:32.795Z,2608
2019-01-18T11:51:32.529Z,3844
2019-01-18T11:52:32.790Z,4060
2019-01-18T11:53:32.734Z,4080
2019-01-18T11:54:32.717Z,4248
2019-01-18T11:55:32.694Z,3496
2019-01-18T11:56:32.779Z,3496
2019-01-18T11:57:32.659Z,3556
2019-01-18T11:58:32.391Z,4248
2019-01-18T11:59:32.620Z,3988
2019-01-18T12:00:37.731Z,3648
2019-01-18T12:01:32.638Z,3208
2019-01-18T12:02:32.568Z,2896
2019-01-18T12:03:32.546Z,2688
2019-01-18T12:04:32.530Z,2544
2019-01-18T12:05:32.272Z,2476
2019-01-18T12:06:32.491Z,2184
2019-01-18T12:07:32.473Z,2208
2019-01-18T12:08:32.456Z,2312
2019-01-18T12:09:32.436Z,2240
2019-01-18T12:10:32.420Z,2220
2019-01-18T12:11:32.675Z,2228
2019-01-18T12:12:32.610Z,2200
2019-01-18T12:13:31.878Z,2152
2019-01-18T12:14:32.094Z,2088
2019-01-18T12:15:32.324Z,2036
2019-01-18T12:16:32.302Z,1988
2019-01-18T12:17:32.289Z,1960
2019-01-18T12:18:32.276Z,1924
2019-01-18T12:19:32.254Z,1904
2019-01-18T12:20:32.241Z,1896
2019-01-18T12:21:37.085Z,1884
2019-01-18T12:22:31.939Z,1864
2019-01-18T12:23:32.175Z,1852
2019-01-18T12:24:32.159Z,1832
2019-01-18T12:25:32.139Z,1816
2019-01-18T12:26:32.114Z,1812
2019-01-18T12:27:32.100Z,1804
2019-01-18T12:28:32.084Z,1804
2019-01-18T12:29:32.068Z,1804
2019-01-18T12:30:32.039Z,1792
2019-01-18T12:31:31.775Z,1768
2019-01-18T12:32:35.725Z,1756
2019-01-18T12:33:31.987Z,1736
2019-01-18T12:34:31.728Z,1728
2019-01-18T12:35:31.948Z,1720
2019-01-18T12:36:31.936Z,1704
2019-01-18T12:37:31.911Z,1696
2019-01-18T12:38:31.640Z,1680
2019-01-18T12:39:31.865Z,1684
2019-01-18T12:40:31.856Z,1696
2019-01-18T12:41:31.842Z,1704
2019-01-18T12:42:31.812Z,1644
2019-01-18T12:43:31.799Z,1548
2019-01-18T12:44:31.562Z,1668
2019-01-18T12:45:31.747Z,1712
2019-01-18T12:46:31.735Z,1752
2019-01-18T12:47:31.714Z,1800
2019-01-18T12:48:31.703Z,1844
2019-01-18T12:49:31.479Z,1872
2019-01-18T12:50:31.652Z,1848
2019-01-18T12:51:31.391Z,1800
2019-01-18T12:52:31.371Z,1700
2019-01-18T12:53:31.903Z,1696
2019-01-18T12:54:31.590Z,1672
2019-01-18T12:55:31.565Z,1692
2019-01-18T12:56:31.547Z,1748
2019-01-18T12:57:31.521Z,1820
2019-01-18T12:58:31.250Z,1856
2019-01-18T12:59:31.483Z,1896
2019-01-18T13:00:31.206Z,1968
2019-01-18T13:01:31.195Z,2128
2019-01-18T13:02:37.710Z,2344
2019-01-18T13:03:31.406Z,2384
2019-01-18T13:04:31.140Z,2060
2019-01-18T13:05:31.118Z,2024
2019-01-18T13:06:31.104Z,1828
2019-01-18T13:07:31.076Z,1772
2019-01-18T13:08:31.315Z,1584
2019-01-18T13:09:31.292Z,1588
2019-01-18T13:10:31.273Z,1592
2019-01-18T13:11:31.249Z,1524
2019-01-18T13:12:31.234Z,1480
2019-01-18T13:13:31.209Z,1480
2019-01-18T13:14:31.196Z,1472
2019-01-18T13:15:31.174Z,1544
2019-01-18T13:16:31.153Z,1616
2019-01-18T13:17:31.137Z,1648
2019-01-18T13:18:31.114Z,1596
2019-01-18T13:19:30.849Z,1496
2019-01-18T13:20:31.078Z,1424
2019-01-18T13:21:31.096Z,1400
2019-01-18T13:22:33.051Z,1368
2019-01-18T13:23:30.835Z,1344
2019-01-18T13:24:31.026Z,1308
2019-01-18T13:25:30.981Z,1312
2019-01-18T13:26:30.961Z,1304
2019-01-18T13:27:30.942Z,1308
2019-01-18T13:28:30.913Z,1300
2019-01-18T13:29:30.906Z,1296
2019-01-18T13:30:30.883Z,1292
2019-01-18T13:31:30.865Z,1288
2019-01-18T13:32:30.582Z,1284
2019-01-18T13:33:30.818Z,1276
2019-01-18T13:34:30.812Z,1260
2019-01-18T13:35:30.537Z,1252
2019-01-18T13:36:30.764Z,1244
2019-01-18T13:37:30.548Z,1236
2019-01-18T13:38:30.718Z,1228
2019-01-18T13:39:30.706Z,1224
2019-01-18T13:40:30.692Z,1224
2019-01-18T13:41:30.662Z,1224
2019-01-18T13:42:30.690Z,1228
2019-01-18T13:43:30.622Z,1228
2019-01-18T13:44:30.358Z,1212
2019-01-18T13:45:31.659Z,1196
2019-01-18T13:46:30.576Z,1188
2019-01-18T13:47:30.546Z,1180
2019-01-18T13:48:30.521Z,1172
2019-01-18T13:49:30.505Z,1164
2019-01-18T13:50:30.229Z,1156
2019-01-18T13:51:30.213Z,1152
2019-01-18T13:52:30.446Z,1144
2019-01-18T13:53:30.419Z,1144
2019-01-18T13:54:29.926Z,1136
2019-01-18T13:55:30.390Z,1132
2019-01-18T13:56:30.362Z,1124
2019-01-18T13:57:30.344Z,1120
2019-01-18T13:58:30.078Z,1116
2019-01-18T13:59:30.054Z,1108
2019-01-18T14:00:30.035Z,1104
2019-01-18T14:01:30.019Z,1096
2019-01-18T14:02:30.244Z,1084
2019-01-18T14:03:30.262Z,1084